createdAt,value
2022-10-14T00:00:52.104Z,98886.00
2022-10-14T00:03:22.992Z,98888.00
2022-10-14T00:05:53.874Z,98882.00
2022-10-14T00:08:25.846Z,98888.00
2022-10-14T00:10:56.738Z,98882.00
2022-10-14T00:13:27.638Z,98904.00
2022-10-14T00:15:58.519Z,98882.00
2022-10-14T00:18:29.930Z,98882.00
2022-10-14T00:21:02.822Z,98879.00
2022-10-14T00:23:33.729Z,98884.00
2022-10-14T00:26:05.038Z,98887.00
2022-10-14T00:28:36.079Z,98876.00
2022-10-14T00:31:07.018Z,98876.00
2022-10-14T00:33:37.948Z,98876.00
2022-10-14T00:36:12.619Z,98883.00
2022-10-14T00:38:45.369Z,98886.00
2022-10-14T00:41:23.675Z,98891.00
2022-10-14T00:43:57.179Z,98887.00
2022-10-14T00:46:33.047Z,98887.00
2022-10-14T00:49:15.660Z,98888.00
2022-10-14T00:51:56.931Z,98900.00
2022-10-14T00:54:46.530Z,98884.00
2022-10-14T00:57:19.085Z,98884.00
2022-10-14T00:59:50.969Z,98884.00
2022-10-14T01:02:21.867Z,98881.00
2022-10-14T01:04:52.981Z,98878.00
2022-10-14T01:08:09.499Z,98887.00
2022-10-14T01:11:21.613Z,98883.00
2022-10-14T01:14:26.321Z,98899.00
2022-10-14T01:17:19.297Z,98874.00
2022-10-14T01:20:28.238Z,98878.00
2022-10-14T01:23:27.279Z,98871.00
2022-10-14T01:26:43.454Z,98872.00
2022-10-14T01:29:40.152Z,98874.00
2022-10-14T01:32:17.424Z,98866.00
2022-10-14T01:35:03.171Z,98864.00
2022-10-14T01:37:37.557Z,98866.00
2022-10-14T01:40:16.002Z,98862.00
2022-10-14T01:42:48.458Z,98860.00
2022-10-14T01:45:22.255Z,98863.00
2022-10-14T01:47:54.957Z,98864.00
2022-10-14T01:50:28.543Z,98862.00
2022-10-14T01:53:06.344Z,98862.00
2022-10-14T01:55:43.752Z,98868.00
2022-10-14T01:58:17.126Z,98865.00
2022-10-14T02:00:48.106Z,98866.00
2022-10-14T02:03:19.226Z,98864.00
2022-10-14T02:06:05.484Z,98871.00
2022-10-14T02:08:55.590Z,98874.00
2022-10-14T02:11:28.191Z,98867.00
2022-10-14T02:14:40.257Z,98879.00
2022-10-14T02:17:38.985Z,98864.00
2022-10-14T02:20:24.085Z,98869.00
2022-10-14T02:23:19.156Z,98863.00
2022-10-14T02:25:51.565Z,98882.00
2022-10-14T02:28:27.207Z,98872.00
2022-10-14T02:31:04.518Z,98862.00
2022-10-14T02:33:41.170Z,98866.00
2022-10-14T02:36:16.905Z,98859.00
2022-10-14T02:38:49.715Z,98869.00
2022-10-14T02:41:25.024Z,98879.00
2022-10-14T02:43:56.040Z,98863.00
2022-10-14T02:46:29.007Z,98870.00
2022-10-14T02:48:59.947Z,98860.00
2022-10-14T02:51:30.845Z,98859.00
2022-10-14T02:54:02.435Z,98849.00
2022-10-14T02:56:33.493Z,98853.00
2022-10-14T02:59:04.405Z,98847.00
2022-10-14T03:01:37.737Z,98839.00
2022-10-14T03:04:08.998Z,98827.00
2022-10-14T03:06:39.912Z,98822.00
2022-10-14T03:09:11.352Z,98825.00
2022-10-14T03:11:42.228Z,98818.00
2022-10-14T03:14:13.207Z,98818.00
2022-10-14T03:16:44.151Z,98810.00
2022-10-14T03:19:15.111Z,98802.00
2022-10-14T03:21:46.002Z,98803.00
2022-10-14T03:24:17.090Z,98804.00
2022-10-14T03:26:47.997Z,98800.00
2022-10-14T03:29:18.875Z,98810.00
2022-10-14T03:31:49.794Z,98794.00
2022-10-14T03:34:20.932Z,98793.00
2022-10-14T03:36:51.815Z,98787.00
2022-10-14T03:39:22.700Z,98792.00
2022-10-14T03:41:53.652Z,98793.00
2022-10-14T03:44:24.631Z,98778.00
2022-10-14T03:46:55.537Z,98779.00
2022-10-14T03:49:26.462Z,98773.00
2022-10-14T03:51:57.355Z,98781.00
2022-10-14T03:54:28.204Z,98777.00
2022-10-14T03:56:59.090Z,98762.00
2022-10-14T03:59:30.018Z,98765.00
2022-10-14T04:02:00.975Z,98759.00
2022-10-14T04:04:31.892Z,98759.00
2022-10-14T04:07:02.851Z,98758.00
2022-10-14T04:09:33.722Z,98764.00
2022-10-14T04:12:05.634Z,98755.00
2022-10-14T04:14:37.383Z,98751.00
2022-10-14T04:17:08.247Z,98759.00
2022-10-14T04:19:39.139Z,98777.00
2022-10-14T04:22:10.460Z,98739.00
2022-10-14T04:24:41.313Z,98740.00
2022-10-14T04:27:12.259Z,98740.00
2022-10-14T04:29:43.280Z,98742.00
2022-10-14T04:32:14.160Z,98738.00
2022-10-14T04:34:45.209Z,98739.00
2022-10-14T04:37:16.382Z,98763.00
2022-10-14T04:39:47.325Z,98737.00
2022-10-14T04:42:18.329Z,98735.00
2022-10-14T04:44:49.291Z,98737.00
2022-10-14T04:47:20.225Z,98732.00
2022-10-14T04:49:51.092Z,98730.00
2022-10-14T04:52:22.364Z,98730.00
2022-10-14T04:54:53.433Z,98733.00
2022-10-14T04:57:24.407Z,98725.00
2022-10-14T04:59:55.286Z,98724.00
2022-10-14T05:02:26.191Z,98722.00
2022-10-14T05:04:57.430Z,98720.00
2022-10-14T05:07:28.496Z,98715.00
2022-10-14T05:09:59.421Z,98714.00
2022-10-14T05:12:31.353Z,98716.00
2022-10-14T05:15:03.243Z,98698.00
2022-10-14T05:17:34.536Z,98697.00
2022-10-14T05:20:07.009Z,98693.00
2022-10-14T05:22:38.653Z,98692.00
2022-10-14T05:25:09.793Z,98696.00
2022-10-14T05:27:40.899Z,98684.00
2022-10-14T05:30:12.506Z,98683.00
2022-10-14T05:32:43.403Z,98686.00
2022-10-14T05:35:14.444Z,98687.00
2022-10-14T05:37:45.328Z,98675.00
2022-10-14T05:40:16.363Z,98673.00
2022-10-14T05:42:47.260Z,98673.00
2022-10-14T05:45:18.594Z,98681.00
2022-10-14T05:47:49.517Z,98673.00
2022-10-14T05:50:20.495Z,98675.00
2022-10-14T05:52:51.386Z,98676.00
2022-10-14T05:55:22.270Z,98673.00
2022-10-14T05:57:56.949Z,98679.00
2022-10-14T06:00:28.069Z,98676.00
2022-10-14T06:02:59.147Z,98678.00
2022-10-14T06:05:30.084Z,98676.00
2022-10-14T06:08:00.985Z,98670.00
2022-10-14T06:10:31.946Z,98679.00
2022-10-14T06:13:03.005Z,98669.00
2022-10-14T06:15:36.304Z,98667.00
2022-10-14T06:18:07.223Z,98659.00
2022-10-14T06:20:38.108Z,98667.00
2022-10-14T06:23:09.027Z,98673.00
2022-10-14T06:25:40.286Z,98674.00
2022-10-14T06:28:11.250Z,98669.00
2022-10-14T06:30:42.203Z,98678.00
2022-10-14T06:33:13.349Z,98679.00
2022-10-14T06:35:44.253Z,98676.00
2022-10-14T06:38:15.680Z,98674.00
2022-10-14T06:40:46.583Z,98678.00
2022-10-14T06:43:18.127Z,98674.00
2022-10-14T06:45:49.632Z,98672.00
2022-10-14T06:48:20.517Z,98680.00
2022-10-14T06:50:51.708Z,98672.00
2022-10-14T06:53:22.605Z,98668.00
2022-10-14T06:56:06.053Z,98674.00
2022-10-14T06:58:36.912Z,98669.00
2022-10-14T07:01:09.263Z,98663.00
2022-10-14T07:03:40.114Z,98666.00
2022-10-14T07:06:11.083Z,98687.00
2022-10-14T07:08:42.791Z,98663.00
2022-10-14T07:11:13.701Z,98662.00
2022-10-14T07:13:44.720Z,98670.00
2022-10-14T07:16:15.756Z,98669.00
2022-10-14T07:18:46.732Z,98666.00
2022-10-14T07:21:17.641Z,98670.00
2022-10-14T07:23:48.565Z,98664.00
2022-10-14T07:26:19.469Z,98665.00
2022-10-14T07:28:50.522Z,98668.00
2022-10-14T07:31:21.520Z,98684.00
2022-10-14T07:33:52.614Z,98670.00
2022-10-14T07:36:23.689Z,98669.00
2022-10-14T07:38:54.723Z,98673.00
2022-10-14T07:41:26.094Z,98675.00
2022-10-14T07:44:05.903Z,98676.00
2022-10-14T07:46:40.292Z,98679.00
2022-10-14T07:49:20.417Z,98674.00
2022-10-14T07:51:51.811Z,98685.00
2022-10-14T07:54:25.614Z,98686.00
2022-10-14T07:56:57.992Z,98679.00
2022-10-14T07:59:29.051Z,98692.00
2022-10-14T08:02:00.027Z,98688.00
2022-10-14T08:04:31.035Z,98681.00
2022-10-14T08:07:03.943Z,98688.00
2022-10-14T08:09:36.723Z,98680.00
2022-10-14T08:12:08.196Z,98671.00
2022-10-14T08:14:39.195Z,98669.00
2022-10-14T08:17:10.103Z,98667.00
2022-10-14T08:19:41.032Z,98667.00
2022-10-14T08:22:11.896Z,98672.00
2022-10-14T08:24:42.766Z,98668.00
2022-10-14T08:27:13.724Z,98665.00
2022-10-14T08:29:44.688Z,98663.00
2022-10-14T08:32:15.794Z,98664.00
2022-10-14T08:34:46.681Z,98658.00
2022-10-14T08:37:17.573Z,98653.00
2022-10-14T08:39:48.543Z,98658.00
2022-10-14T08:42:39.133Z,98658.00
2022-10-14T08:45:25.327Z,98656.00
2022-10-14T08:47:58.537Z,98649.00
2022-10-14T08:50:47.001Z,98644.00
2022-10-14T08:53:23.142Z,98659.00
2022-10-14T08:56:00.489Z,98651.00
2022-10-14T08:58:40.271Z,98648.00
2022-10-14T09:01:32.371Z,98660.00
2022-10-14T09:04:06.966Z,98661.00
2022-10-14T09:06:42.590Z,98649.00
2022-10-14T09:09:28.445Z,98653.00
2022-10-14T09:12:04.058Z,98644.00
2022-10-14T09:14:39.759Z,98649.00
2022-10-14T09:17:25.951Z,98647.00
2022-10-14T09:20:24.826Z,98653.00
2022-10-14T09:23:04.346Z,98651.00
2022-10-14T09:25:37.591Z,98640.00
2022-10-14T09:28:09.738Z,98638.00
2022-10-14T09:30:40.671Z,98637.00
2022-10-14T09:33:21.769Z,98636.00
2022-10-14T09:35:52.839Z,98639.00
2022-10-14T09:38:25.721Z,98634.00
2022-10-14T09:41:00.426Z,98632.00
2022-10-14T09:43:31.382Z,98627.00
2022-10-14T09:46:08.124Z,98624.00
2022-10-14T09:48:50.003Z,98643.00
2022-10-14T09:51:31.505Z,98628.00
2022-10-14T09:54:04.756Z,98611.00
2022-10-14T09:56:41.829Z,98625.00
2022-10-14T09:59:22.491Z,98618.00
2022-10-14T10:01:57.643Z,98610.00
2022-10-14T10:04:47.691Z,98605.00
2022-10-14T10:07:31.724Z,98610.00
2022-10-14T10:10:19.517Z,98595.00
2022-10-14T10:12:50.455Z,98606.00
2022-10-14T10:15:21.807Z,98592.00
2022-10-14T10:17:53.577Z,98590.00
2022-10-14T10:20:33.595Z,98587.00
2022-10-14T10:23:25.514Z,98587.00
2022-10-14T10:26:14.956Z,98583.00
2022-10-14T10:28:48.675Z,98581.00
2022-10-14T10:32:03.308Z,98570.00
2022-10-14T10:35:06.919Z,98570.00
2022-10-14T10:38:12.673Z,98575.00
2022-10-14T10:41:23.218Z,98565.00
2022-10-14T10:44:37.141Z,98556.00
2022-10-14T10:47:35.046Z,98542.00
2022-10-14T10:50:30.449Z,98544.00
2022-10-14T10:53:16.258Z,98535.00
2022-10-14T10:55:54.134Z,98536.00
2022-10-14T10:58:31.121Z,98537.00
2022-10-14T11:01:42.990Z,98525.00
2022-10-14T11:04:31.444Z,98521.00
2022-10-14T11:07:41.365Z,98534.00
2022-10-14T11:10:43.271Z,98548.00
2022-10-14T11:13:27.136Z,98522.00
2022-10-14T11:16:14.874Z,98515.00
2022-10-14T11:19:12.301Z,98511.00
2022-10-14T11:21:51.454Z,98511.00
2022-10-14T11:24:43.308Z,98510.00
2022-10-14T11:27:41.708Z,98515.00
2022-10-14T11:30:18.041Z,98515.00
2022-10-14T11:33:58.485Z,98528.00
2022-10-14T11:36:40.283Z,98521.00
2022-10-14T11:39:42.701Z,98522.00
2022-10-14T11:42:52.530Z,98508.00
2022-10-14T11:46:01.731Z,98507.00
2022-10-14T11:48:39.992Z,98501.00
2022-10-14T11:51:20.236Z,98508.00
2022-10-14T11:54:28.755Z,98493.00
2022-10-14T11:57:15.641Z,98494.00
2022-10-14T12:00:11.754Z,98486.00
2022-10-14T12:03:02.955Z,98485.00
2022-10-14T12:05:46.036Z,98476.00
2022-10-14T12:08:33.269Z,98461.00
2022-10-14T12:11:15.714Z,98462.00
2022-10-14T12:13:54.795Z,98458.00
2022-10-14T12:16:25.827Z,98455.00
2022-10-14T12:18:58.336Z,98461.00
2022-10-14T12:21:34.706Z,98450.00
2022-10-14T12:24:14.468Z,98451.00
2022-10-14T12:26:58.128Z,98445.00
2022-10-14T12:29:34.823Z,98448.00
2022-10-14T12:32:05.714Z,98445.00
2022-10-14T12:34:42.119Z,98443.00
2022-10-14T12:37:28.801Z,98430.00
2022-10-14T12:40:02.242Z,98422.00
2022-10-14T12:43:11.823Z,98427.00
2022-10-14T12:46:03.575Z,98430.00
2022-10-14T12:48:36.458Z,98427.00
2022-10-14T12:51:13.764Z,98435.00
2022-10-14T12:53:58.102Z,98425.00
2022-10-14T12:56:45.097Z,98426.00
2022-10-14T12:59:42.439Z,98418.00
2022-10-14T13:02:35.220Z,98426.00
2022-10-14T13:05:22.667Z,98422.00
2022-10-14T13:08:24.313Z,98415.00
2022-10-14T13:10:55.165Z,98409.00
2022-10-14T13:13:42.003Z,98399.00
2022-10-14T13:16:24.588Z,98394.00
2022-10-14T13:19:03.760Z,98404.00
2022-10-14T13:21:34.614Z,98411.00
2022-10-14T13:24:26.920Z,98417.00
2022-10-14T13:27:04.653Z,98423.00
2022-10-14T13:29:53.521Z,98411.00
2022-10-14T13:32:55.683Z,98403.00
2022-10-14T13:35:51.002Z,98410.00
2022-10-14T13:38:24.008Z,98416.00
2022-10-14T13:40:57.722Z,98403.00
2022-10-14T13:43:38.883Z,98414.00
2022-10-14T13:46:26.331Z,98411.00
2022-10-14T13:49:03.007Z,98435.00
2022-10-14T13:52:06.023Z,98404.00
2022-10-14T13:54:37.035Z,98403.00
2022-10-14T13:57:47.935Z,98406.00
2022-10-14T14:00:40.709Z,98411.00
2022-10-14T14:03:41.802Z,98409.00
2022-10-14T14:06:17.451Z,98409.00
2022-10-14T14:09:07.982Z,98403.00
2022-10-14T14:11:39.004Z,98397.00
2022-10-14T14:14:20.941Z,98402.00
2022-10-14T14:17:00.827Z,98392.00
2022-10-14T14:19:37.457Z,98397.00
2022-10-14T14:22:27.366Z,98397.00
2022-10-14T14:25:33.352Z,98401.00
2022-10-14T14:28:07.962Z,98403.00
2022-10-14T14:30:39.807Z,98404.00
2022-10-14T14:33:19.063Z,98401.00
2022-10-14T14:36:00.878Z,98406.00
2022-10-14T14:38:37.632Z,98399.00
2022-10-14T14:41:25.609Z,98402.00
2022-10-14T14:46:58.632Z,98400.00
2022-10-14T14:49:35.376Z,98386.00
2022-10-14T14:52:07.377Z,98394.00
2022-10-14T14:54:46.005Z,98380.00
2022-10-14T14:57:22.158Z,98376.00
2022-10-14T15:00:07.707Z,98377.00
2022-10-14T15:02:38.646Z,98375.00
2022-10-14T15:05:11.929Z,98377.00
2022-10-14T15:07:43.968Z,98378.00
2022-10-14T15:10:26.284Z,98377.00
2022-10-14T15:13:02.475Z,98388.00
2022-10-14T15:15:34.875Z,98379.00
2022-10-14T15:18:28.148Z,98383.00
2022-10-14T15:21:15.191Z,98384.00
2022-10-14T15:23:49.069Z,98386.00
2022-10-14T15:26:27.887Z,98394.00
2022-10-14T15:32:01.517Z,98382.00
2022-10-14T15:34:32.404Z,98384.00
2022-10-14T15:37:03.327Z,98379.00
2022-10-14T15:39:34.225Z,98376.00
2022-10-14T15:42:13.009Z,98376.00
2022-10-14T15:44:43.859Z,98367.00
2022-10-14T15:47:20.774Z,98365.00
2022-10-14T15:49:51.636Z,98359.00
2022-10-14T15:52:26.022Z,98362.00
2022-10-14T15:54:58.918Z,98359.00
2022-10-14T15:57:30.570Z,98368.00
2022-10-14T16:00:01.535Z,98360.00
2022-10-14T16:02:33.494Z,98360.00
2022-10-14T16:05:19.477Z,98350.00
2022-10-14T16:07:51.171Z,98358.00
2022-10-14T16:10:23.771Z,98352.00
2022-10-14T16:12:54.681Z,98348.00
2022-10-14T16:15:49.557Z,98360.00
2022-10-14T16:18:23.250Z,98356.00
2022-10-14T16:20:54.158Z,98357.00
2022-10-14T16:23:28.380Z,98350.00
2022-10-14T16:26:03.469Z,98353.00
2022-10-14T16:28:34.352Z,98348.00
2022-10-14T16:31:05.686Z,98357.00
2022-10-14T16:33:38.305Z,98354.00
2022-10-14T16:36:14.903Z,98363.00
2022-10-14T16:38:45.813Z,98372.00
2022-10-14T16:41:16.688Z,98361.00
2022-10-14T16:43:47.856Z,98357.00
2022-10-14T16:46:18.762Z,98361.00
2022-10-14T16:48:49.733Z,98362.00
2022-10-14T16:53:56.376Z,98354.00
2022-10-14T16:56:45.782Z,98347.00
2022-10-14T16:59:16.805Z,98353.00
2022-10-14T17:01:49.148Z,98359.00
2022-10-14T17:04:20.784Z,98382.00
2022-10-14T17:06:51.831Z,98373.00
2022-10-14T17:11:54.726Z,98370.00
2022-10-14T17:14:25.918Z,98364.00
2022-10-14T17:17:00.401Z,98361.00
2022-10-14T17:19:31.354Z,98360.00
2022-10-14T17:22:03.276Z,98361.00
2022-10-14T17:24:34.215Z,98352.00
2022-10-14T17:27:05.389Z,98353.00
2022-10-14T17:29:36.351Z,98348.00
2022-10-14T17:32:07.397Z,98348.00
2022-10-14T17:34:38.479Z,98337.00
2022-10-14T17:39:45.200Z,98352.00
2022-10-14T17:42:16.175Z,98348.00
2022-10-14T17:44:47.066Z,98352.00
2022-10-14T17:47:18.191Z,98343.00
2022-10-14T17:49:50.406Z,98342.00
2022-10-14T17:52:21.326Z,98344.00
2022-10-14T17:54:52.188Z,98352.00
2022-10-14T17:57:23.268Z,98354.00
2022-10-14T17:59:54.433Z,98355.00
2022-10-14T18:02:25.452Z,98354.00
2022-10-14T18:04:56.353Z,98344.00
2022-10-14T18:07:27.979Z,98359.00
2022-10-14T18:09:59.118Z,98350.00
2022-10-14T18:12:30.159Z,98345.00
2022-10-14T18:15:01.762Z,98335.00
2022-10-14T18:17:32.690Z,98340.00
2022-10-14T18:20:05.467Z,98339.00
2022-10-14T18:22:36.467Z,98344.00
2022-10-14T18:25:07.822Z,98331.00
2022-10-14T18:27:38.861Z,98330.00
2022-10-14T18:30:11.351Z,98330.00
2022-10-14T18:32:42.273Z,98327.00
2022-10-14T18:35:13.293Z,98327.00
2022-10-14T18:37:44.177Z,98324.00
2022-10-14T18:40:17.045Z,98319.00
2022-10-14T18:42:47.939Z,98316.00
2022-10-14T18:45:18.858Z,98310.00
2022-10-14T18:47:49.848Z,98312.00
2022-10-14T18:50:20.745Z,98308.00
2022-10-14T18:52:51.651Z,98316.00
2022-10-14T18:55:22.515Z,98312.00
2022-10-14T18:57:53.403Z,98310.00
2022-10-14T19:00:25.098Z,98302.00
2022-10-14T19:02:55.970Z,98301.00
2022-10-14T19:05:32.212Z,98301.00
2022-10-14T19:08:04.415Z,98295.00
2022-10-14T19:10:35.376Z,98298.00
2022-10-14T19:13:06.319Z,98292.00
2022-10-14T19:15:45.268Z,98282.00
2022-10-14T19:18:18.658Z,98272.00
2022-10-14T19:20:56.355Z,98272.00
2022-10-14T19:23:27.496Z,98271.00
2022-10-14T19:25:59.445Z,98265.00
2022-10-14T19:28:30.383Z,98264.00
2022-10-14T19:31:19.342Z,98258.00
2022-10-14T19:33:50.800Z,98255.00
2022-10-14T19:36:24.131Z,98253.00
2022-10-14T19:38:59.515Z,98250.00
2022-10-14T19:41:33.899Z,98267.00
2022-10-14T19:44:05.334Z,98240.00
2022-10-14T19:46:36.257Z,98243.00
2022-10-14T19:49:07.225Z,98248.00
2022-10-14T19:51:38.954Z,98238.00
2022-10-14T19:54:12.026Z,98236.00
2022-10-14T19:56:43.447Z,98232.00
2022-10-14T19:59:14.893Z,98236.00
2022-10-14T20:01:45.950Z,98225.00
2022-10-14T20:04:16.897Z,98225.00
2022-10-14T20:06:47.787Z,98212.00
2022-10-14T20:09:18.619Z,98241.00
2022-10-14T20:11:49.523Z,98209.00
2022-10-14T20:14:20.405Z,98213.00
2022-10-14T20:16:53.673Z,98212.00
2022-10-14T20:19:26.836Z,98205.00
2022-10-14T20:22:00.553Z,98206.00
2022-10-14T20:24:31.465Z,98200.00
2022-10-14T20:27:03.141Z,98195.00
2022-10-14T20:29:36.797Z,98195.00
2022-10-14T20:32:08.990Z,98193.00
2022-10-14T20:34:40.000Z,98191.00
2022-10-14T20:37:10.929Z,98191.00
2022-10-14T20:39:41.810Z,98184.00
2022-10-14T20:42:12.685Z,98173.00
2022-10-14T20:44:43.611Z,98173.00
2022-10-14T20:47:14.546Z,98196.00
2022-10-14T20:49:45.420Z,98177.00
2022-10-14T20:52:16.332Z,98177.00
2022-10-14T20:54:47.203Z,98169.00
2022-10-14T20:57:18.136Z,98164.00
2022-10-14T20:59:49.011Z,98168.00
2022-10-14T21:02:21.741Z,98165.00
2022-10-14T21:04:53.149Z,98162.00
2022-10-14T21:07:24.720Z,98162.00
2022-10-14T21:09:55.981Z,98165.00
2022-10-14T21:12:26.947Z,98159.00
2022-10-14T21:14:57.862Z,98152.00
2022-10-14T21:17:28.806Z,98156.00
2022-10-14T21:19:59.700Z,98173.00
2022-10-14T21:22:30.605Z,98178.00
2022-10-14T21:25:01.490Z,98145.00
2022-10-14T21:27:32.415Z,98137.00
2022-10-14T21:30:04.103Z,98132.00
2022-10-14T21:32:35.050Z,98139.00
2022-10-14T21:35:06.975Z,98134.00
2022-10-14T21:37:37.883Z,98151.00
2022-10-14T21:40:09.735Z,98122.00
2022-10-14T21:42:40.707Z,98121.00
2022-10-14T21:45:11.577Z,98110.00
2022-10-14T21:47:42.451Z,98112.00
2022-10-14T21:50:13.358Z,98108.00
2022-10-14T21:52:44.239Z,98108.00
2022-10-14T21:55:15.243Z,98090.00
2022-10-14T21:57:46.128Z,98091.00
2022-10-14T22:00:17.321Z,98089.00
2022-10-14T22:02:52.728Z,98095.00
2022-10-14T22:05:23.599Z,98080.00
2022-10-14T22:07:54.559Z,98079.00
2022-10-14T22:10:44.929Z,98083.00
2022-10-14T22:13:15.905Z,98078.00
2022-10-14T22:15:47.069Z,98071.00
2022-10-14T22:18:18.001Z,98071.00
2022-10-14T22:20:51.480Z,98069.00
2022-10-14T22:23:22.369Z,98062.00
2022-10-14T22:25:53.263Z,98062.00
2022-10-14T22:28:31.225Z,98064.00
2022-10-14T22:31:08.326Z,98052.00
2022-10-14T22:33:40.444Z,98050.00
2022-10-14T22:36:34.145Z,98041.00
2022-10-14T22:39:10.419Z,98042.00
2022-10-14T22:41:41.361Z,98048.00
2022-10-14T22:44:12.262Z,98043.00
2022-10-14T22:46:43.158Z,98042.00
2022-10-14T22:49:14.038Z,98030.00
2022-10-14T22:51:44.959Z,98037.00
2022-10-14T22:54:15.824Z,98052.00
2022-10-14T22:56:46.732Z,98029.00
2022-10-14T22:59:17.591Z,98031.00
2022-10-14T23:01:48.485Z,98035.00
2022-10-14T23:04:19.406Z,98024.00
2022-10-14T23:06:51.531Z,98023.00
2022-10-14T23:09:22.498Z,98016.00
2022-10-14T23:11:53.450Z,98021.00
2022-10-14T23:14:24.420Z,98016.00
2022-10-14T23:16:55.305Z,98023.00
2022-10-14T23:19:26.204Z,98003.00
2022-10-14T23:21:57.182Z,98001.00
2022-10-14T23:24:28.223Z,98014.00
2022-10-14T23:26:59.149Z,98002.00
2022-10-14T23:29:30.078Z,98011.00
2022-10-14T23:32:02.173Z,97999.00
2022-10-14T23:34:33.088Z,97995.00
2022-10-14T23:37:03.994Z,97992.00
2022-10-14T23:39:34.911Z,97991.00
2022-10-14T23:42:05.907Z,97986.00
2022-10-14T23:44:36.840Z,97993.00
2022-10-14T23:47:08.096Z,97990.00
2022-10-14T23:49:39.016Z,97987.00
2022-10-14T23:52:09.959Z,97992.00
2022-10-14T23:54:40.836Z,97994.00
2022-10-14T23:57:11.744Z,98009.00
2022-10-14T23:59:42.879Z,97986.00
